Time;durP1;ratioP1;P1;durP2;ratioP2;P2;SDS_P1;SDS_P2;PMS_P1;PMS_P2;Temp;Humidity;BMP_temperature;BMP_pressure;BME280_temperature;BME280_humidity;BME280_pressure;Samples;Min_cycle;Max_cycle;Signal;HPM_P1;HPM_P2
2022/05/05 00:01:43;;;;;;;19.03;8.77;;;;;;;20.52;47.35;101860.97;5094030;28;20048;-52
2022/05/05 00:04:10;;;;;;;17.65;8.85;;;;;;;20.47;47.81;101856.25;5082923;28;20041;-51
2022/05/05 00:06:36;;;;;;;23.95;10.15;;;;;;;20.51;48.08;101856.59;5087492;28;20064;-54
2022/05/05 00:09:03;;;;;;;20.13;9.87;;;;;;;20.47;48.52;101856.25;5077103;28;20037;-53
2022/05/05 00:14:31;;;;;;;21.58;9.45;;;;;;;20.38;49.26;101852.25;5076540;28;20059;-53
2022/05/05 00:17:01;;;;;;;20.75;10.15;;;;;;;20.30;49.49;101856.13;5089455;28;20028;-54
2022/05/05 00:19:29;;;;;;;21.73;9.60;;;;;;;20.43;49.47;101849.63;5079875;28;20040;-55
2022/05/05 00:21:54;;;;;;;25.83;10.48;;;;;;;20.42;49.59;101850.69;5069749;28;20033;-51
2022/05/05 00:24:21;;;;;;;24.35;10.13;;;;;;;20.31;50.05;101846.91;5096771;28;20048;-54
2022/05/05 00:26:46;;;;;;;22.20;10.18;;;;;;;20.34;50.35;101846.44;5086087;28;20040;-53
2022/05/05 00:29:12;;;;;;;22.10;10.10;;;;;;;20.40;50.62;101843.84;5091049;28;20037;-51
2022/05/05 00:31:37;;;;;;;22.98;9.88;;;;;;;20.30;50.98;101845.28;5078396;28;20040;-54
2022/05/05 00:34:03;;;;;;;25.83;10.45;;;;;;;20.30;50.81;101842.56;5081712;28;20037;-53
2022/05/05 00:36:28;;;;;;;25.90;11.50;;;;;;;20.39;50.58;101843.03;5087448;28;20036;-52
2022/05/05 00:38:54;;;;;;;23.30;10.88;;;;;;;20.33;50.97;101838.56;5088855;28;20039;-52
2022/05/05 00:41:20;;;;;;;28.50;10.83;;;;;;;20.14;51.60;101851.41;5081292;28;20037;-52
2022/05/05 00:43:46;;;;;;;24.70;10.20;;;;;;;20.12;52.00;101842.66;5078477;28;20037;-53
2022/05/05 00:46:11;;;;;;;27.27;10.97;;;;;;;20.14;52.01;101846.81;5090789;28;20123;-55
2022/05/05 00:48:37;;;;;;;30.70;11.57;;;;;;;20.04;52.01;101847.38;5084934;28;20295;-52
2022/05/05 00:51:02;;;;;;;21.80;10.18;;;;;;;20.07;52.32;101846.09;5083105;28;20041;-54
2022/05/05 00:53:28;;;;;;;24.23;11.40;;;;;;;20.06;52.77;101847.13;5092939;28;20064;-54
2022/05/05 00:55:56;;;;;;;23.23;11.23;;;;;;;20.28;52.06;101841.13;5079940;28;20035;-53
2022/05/05 00:58:25;;;;;;;26.88;11.00;;;;;;;20.19;52.26;101841.50;5088603;28;20037;-55
2022/05/05 01:00:51;;;;;;;25.33;11.50;;;;;;;20.27;52.38;101850.34;5087787;28;20054;-53
2022/05/05 01:03:18;;;;;;;27.23;11.70;;;;;;;20.24;52.68;101848.09;5081165;28;20040;-56
2022/05/05 01:05:44;;;;;;;26.25;10.57;;;;;;;20.11;53.35;101850.00;5092502;28;20301;-55
2022/05/05 01:08:10;;;;;;;26.23;11.02;;;;;;;20.08;53.20;101845.03;5076156;28;20024;-56
2022/05/05 01:10:36;;;;;;;21.27;10.57;;;;;;;20.11;53.66;101841.00;5085397;28;20037;-54
2022/05/05 01:13:01;;;;;;;24.87;11.03;;;;;;;19.42;54.32;101842.28;5076089;28;20077;-52
2022/05/05 01:15:29;;;;;;;25.20;12.07;;;;;;;18.42;62.37;101847.81;5080729;28;20068;-52
2022/05/05 01:17:56;;;;;;;29.15;10.70;;;;;;;18.47;63.86;101850.66;5062947;28;20032;-54
2022/05/05 01:20:22;;;;;;;27.30;10.80;;;;;;;18.30;65.80;101845.00;5088388;28;20025;-54
2022/05/05 01:22:49;;;;;;;27.67;10.80;;;;;;;18.27;66.22;101846.28;5086682;28;20111;-53
2022/05/05 01:28:12;;;;;;;23.98;10.65;;;;;;;18.33;66.35;101849.97;5073539;28;20088;-53
2022/05/05 01:30:42;;;;;;;28.73;11.30;;;;;;;18.20;67.23;101853.63;5085045;28;20037;-54
2022/05/05 01:33:16;;;;;;;24.27;11.23;;;;;;;17.89;69.25;101848.00;5082052;28;20059;-55
2022/05/05 01:35:43;;;;;;;30.83;12.52;;;;;;;17.88;69.44;101842.84;5077172;28;20052;-52
2022/05/05 01:38:11;;;;;;;28.75;11.75;;;;;;;17.96;68.99;101836.31;5090216;28;20040;-53
2022/05/05 01:40:37;;;;;;;24.23;12.48;;;;;;;17.92;68.68;101849.47;5084621;28;20028;-49
2022/05/05 01:43:03;;;;;;;27.83;13.02;;;;;;;17.90;68.68;101840.75;5082206;28;20072;-53
2022/05/05 01:45:30;;;;;;;34.30;12.52;;;;;;;17.84;68.95;101841.59;5091675;28;20051;-53
2022/05/05 01:47:55;;;;;;;;;;;;;;;17.88;69.48;101838.25;5058361;28;20037;-52
2022/05/05 01:50:22;;;;;;;25.63;12.10;;;;;;;17.70;70.49;101843.56;5081654;28;19970;-51
2022/05/05 01:52:47;;;;;;;28.67;12.23;;;;;;;17.57;71.35;101842.63;5084595;28;20059;-52
2022/05/05 01:55:13;;;;;;;31.45;12.10;;;;;;;17.56;72.45;101845.53;5075397;28;20049;-54
2022/05/05 01:57:39;;;;;;;30.15;12.55;;;;;;;17.45;73.94;101847.06;5087078;28;20040;-53
2022/05/05 02:00:05;;;;;;;27.43;11.57;;;;;;;17.49;74.01;101854.53;5090351;28;20096;-54
2022/05/05 02:02:40;;;;;;;27.77;12.15;;;;;;;17.41;74.86;101853.97;5084411;28;20062;-52
2022/05/05 02:05:06;;;;;;;27.57;12.23;;;;;;;19.01;64.73;101853.63;5081773;28;20033;-51
2022/05/05 02:07:31;;;;;;;28.05;11.32;;;;;;;19.13;63.13;101855.56;5080735;28;20029;-52
2022/05/05 02:10:01;;;;;;;27.17;10.57;;;;;;;19.38;61.58;101860.06;5075222;28;20059;-54
2022/05/05 02:12:28;;;;;;;29.20;11.88;;;;;;;19.28;61.84;101860.63;5086864;28;20068;-53
2022/05/05 02:14:54;;;;;;;27.15;12.40;;;;;;;19.33;61.07;101858.84;5074921;28;20035;-52
2022/05/05 02:17:19;;;;;;;26.33;11.23;;;;;;;19.31;61.06;101860.97;5089543;28;20036;-53
2022/05/05 02:19:46;;;;;;;30.23;12.53;;;;;;;19.14;62.40;101860.78;5077713;28;20061;-55
2022/05/05 02:22:12;;;;;;;28.80;11.70;;;;;;;19.08;63.13;101863.56;5089266;28;20254;-56
2022/05/05 02:24:38;;;;;;;26.15;10.68;;;;;;;19.22;62.61;101862.34;5083809;28;20048;-55
2022/05/05 02:27:05;;;;;;;27.23;12.80;;;;;;;19.10;63.39;101861.44;5081809;28;20041;-55
2022/05/05 02:29:30;;;;;;;;;;;;;;;18.91;65.66;101856.84;5091422;28;20086;-56
2022/05/05 02:31:55;;;;;;;22.07;9.90;;;;;;;18.97;64.70;101859.69;5077856;28;20174;-54
2022/05/05 02:34:21;;;;;;;31.02;12.20;;;;;;;19.02;64.64;101855.28;5087421;28;20055;-56
2022/05/05 02:39:48;;;;;;;28.65;12.70;;;;;;;19.34;62.62;101865.94;5076379;28;20055;-54
2022/05/05 02:42:15;;;;;;;33.53;12.00;;;;;;;19.15;62.98;101861.63;5088037;28;20041;-54
2022/05/05 02:44:41;;;;;;;22.80;11.80;;;;;;;19.06;63.73;101858.38;5083818;28;20303;-55
2022/05/05 02:47:06;;;;;;;30.10;12.47;;;;;;;18.95;64.37;101859.09;5081359;28;20041;-55
2022/05/05 02:49:32;;;;;;;25.27;10.50;;;;;;;19.13;63.19;101863.69;5090479;28;20333;-54
2022/05/05 02:51:57;;;;;;;30.50;11.87;;;;;;;19.02;64.06;101858.00;5061221;28;20043;-56
2022/05/05 02:57:07;;;;;;;25.33;12.13;;;;;;;18.80;64.82;101856.78;5087273;28;20036;-54
2022/05/05 02:59:32;;;;;;;31.53;11.90;;;;;;;18.94;63.86;101858.28;5077498;28;20091;-55
2022/05/05 03:01:58;;;;;;;27.70;11.02;;;;;;;18.99;63.67;101853.03;5061223;28;20032;-55
2022/05/05 03:04:23;;;;;;;28.40;12.17;;;;;;;18.92;63.93;101855.00;5086971;28;20048;-53
2022/05/05 03:06:49;;;;;;;27.83;12.47;;;;;;;18.75;65.93;101852.88;5084703;28;20048;-56
2022/05/05 03:09:14;;;;;;;25.17;11.70;;;;;;;18.82;67.13;101857.38;5080106;28;20037;-54
2022/05/05 03:11:40;;;;;;;32.47;12.95;;;;;;;18.83;67.40;101859.03;5095364;28;20040;-56
2022/05/05 03:14:05;;;;;;;25.98;12.40;;;;;;;18.88;66.52;101861.88;5080609;28;20100;-56
2022/05/05 03:16:31;;;;;;;28.70;12.23;;;;;;;18.44;68.43;101864.66;5080406;28;20037;-55
2022/05/05 03:18:56;;;;;;;30.58;12.98;;;;;;;18.46;68.61;101868.81;5092213;28;20036;-55
2022/05/05 03:21:22;;;;;;;33.57;14.43;;;;;;;18.67;67.25;101866.69;5085548;28;20100;-55
2022/05/05 03:23:47;;;;;;;29.23;13.00;;;;;;;17.21;77.78;101863.00;5097193;28;20276;-54
2022/05/05 03:26:13;;;;;;;30.33;12.73;;;;;;;16.60;87.87;101859.63;5086010;28;20035;-55
2022/05/05 03:28:39;;;;;;;27.88;13.32;;;;;;;16.39;93.21;101864.25;5091643;28;20075;-56
2022/05/05 03:31:06;;;;;;;28.25;14.23;;;;;;;17.02;92.74;101872.84;5080547;28;20061;-53
2022/05/05 03:33:32;;;;;;;;;;;;;;;18.39;75.77;101876.16;5097119;28;20039;-56
2022/05/05 03:35:58;;;;;;;31.75;13.02;;;;;;;18.36;74.44;101879.31;5083957;28;19912;-55
2022/05/05 03:38:24;;;;;;;31.70;13.73;;;;;;;18.64;72.97;101883.41;5093630;28;20045;-55
2022/05/05 03:40:50;;;;;;;38.20;15.57;;;;;;;18.44;74.34;101886.31;5090570;28;20269;-54
2022/05/05 03:43:17;;;;;;;33.63;13.90;;;;;;;18.44;72.74;101889.84;5086156;28;20059;-52
2022/05/05 03:45:42;;;;;;;29.48;13.60;;;;;;;18.34;72.67;101884.13;5097105;28;20097;-53
2022/05/05 03:48:08;;;;;;;32.70;14.20;;;;;;;18.38;72.17;101887.22;5085183;28;20036;-57
2022/05/05 03:50:35;;;;;;;35.67;14.13;;;;;;;18.30;73.38;101886.44;5091901;28;20079;-55
2022/05/05 03:53:01;;;;;;;32.17;13.70;;;;;;;18.47;73.09;101889.44;5092439;28;20032;-52
2022/05/05 03:55:28;;;;;;;34.50;16.38;;;;;;;18.60;73.63;101884.91;5084698;28;20105;-53
2022/05/05 03:57:53;;;;;;;32.63;15.10;;;;;;;18.58;74.37;101889.72;5096860;28;20100;-54
2022/05/05 04:00:22;;;;;;;;;;;;;;;18.58;75.53;101887.88;5086791;28;20127;-54
2022/05/05 04:03:30;;;;;;;33.45;14.63;;;;;;;18.56;76.58;101886.41;5089919;28;19912;-53
2022/05/05 04:05:34;;;;;;;33.90;15.43;;;;;;;18.53;80.71;101895.00;5096621;28;20036;-53
2022/05/05 04:08:04;;;;;;;35.90;15.23;;;;;;;18.60;80.61;101898.47;5079984;28;20037;-56
2022/05/05 04:10:30;;;;;;;35.67;14.38;;;;;;;18.58;82.77;101900.56;5079744;28;20135;-50
2022/05/05 04:12:56;;;;;;;34.88;15.80;;;;;;;18.61;83.90;101897.41;5091300;28;20066;-52
2022/05/05 04:15:22;;;;;;;34.47;15.80;;;;;;;18.76;79.77;101894.34;5085367;28;20029;-55
2022/05/05 04:17:49;;;;;;;27.13;14.00;;;;;;;18.80;78.40;101903.69;5096250;28;20119;-52
2022/05/05 04:20:14;;;;;;;29.60;14.85;;;;;;;18.81;78.07;101909.94;5084604;28;20115;-55
2022/05/05 04:22:41;;;;;;;40.00;15.83;;;;;;;18.77;79.74;101906.81;5088144;28;20033;-54
2022/05/05 04:25:08;;;;;;;29.80;14.77;;;;;;;18.75;80.18;101907.06;5089315;28;20125;-56
2022/05/05 04:27:35;;;;;;;34.40;14.80;;;;;;;18.78;79.46;101909.31;5080323;28;20101;-53
2022/05/05 04:30:02;;;;;;;35.40;15.25;;;;;;;18.81;78.35;101915.34;5059585;28;20029;-50
2022/05/05 04:32:28;;;;;;;30.02;14.32;;;;;;;18.84;77.60;101906.75;5083504;28;20096;-53
2022/05/05 04:34:54;;;;;;;29.60;14.50;;;;;;;18.72;77.15;101907.53;5085885;28;20036;-53
2022/05/05 04:37:20;;;;;;;33.63;15.10;;;;;;;18.69;76.10;101918.81;5090230;28;20087;-52
2022/05/05 04:39:46;;;;;;;36.88;13.73;;;;;;;18.78;75.37;101911.19;5092333;28;20273;-53
2022/05/05 04:42:11;;;;;;;26.45;14.00;;;;;;;18.75;75.85;101915.19;5081348;28;20077;-54
2022/05/05 04:44:38;;;;;;;33.45;13.63;;;;;;;18.71;75.72;101911.28;5087806;28;20052;-52
2022/05/05 04:47:04;;;;;;;29.52;13.50;;;;;;;18.97;72.25;101914.75;5088456;28;20100;-50
2022/05/05 04:49:31;;;;;;;36.90;14.45;;;;;;;18.97;71.21;101914.75;5080316;28;20049;-51
2022/05/05 04:51:57;;;;;;;27.00;12.10;;;;;;;19.05;69.10;101921.78;5079278;28;20292;-55
2022/05/05 04:54:23;;;;;;;27.92;12.35;;;;;;;19.24;66.71;101914.47;5090050;28;20032;-51
2022/05/05 04:56:49;;;;;;;29.33;12.48;;;;;;;19.29;65.14;101914.59;5085850;28;20071;-52
2022/05/05 04:59:14;;;;;;;35.87;12.20;;;;;;;19.43;63.36;101922.59;5082794;28;20041;-52
2022/05/05 05:01:40;;;;;;;24.93;12.00;;;;;;;19.41;63.30;101925.50;5092909;28;20028;-56
2022/05/05 05:04:06;;;;;;;27.73;11.83;;;;;;;19.47;62.53;101923.78;5076145;28;20478;-53
2022/05/05 05:06:32;;;;;;;21.05;10.85;;;;;;;19.60;61.21;101923.59;5083544;28;20265;-51
2022/05/05 05:08:57;;;;;;;31.52;12.48;;;;;;;19.67;60.54;101928.13;5085046;28;20033;-53
2022/05/05 05:11:23;;;;;;;27.08;11.65;;;;;;;19.71;60.47;101923.88;5075845;28;20041;-56
2022/05/05 05:13:49;;;;;;;34.40;11.68;;;;;;;19.74;59.48;101937.81;5092594;28;20415;-53
2022/05/05 05:16:14;;;;;;;33.50;12.00;;;;;;;19.77;59.20;101940.06;5081046;28;20032;-53
2022/05/05 05:18:40;;;;;;;37.78;13.13;;;;;;;19.91;58.04;101946.16;5086873;28;20113;-53
2022/05/05 05:21:05;;;;;;;24.27;12.18;;;;;;;19.95;56.69;101934.84;5088351;28;20047;-52
2022/05/05 05:23:31;;;;;;;32.30;13.00;;;;;;;20.03;55.71;101939.91;5080162;28;20067;-53
2022/05/05 05:25:56;;;;;;;25.53;11.63;;;;;;;19.84;56.01;101945.41;5092260;28;20044;-55
2022/05/05 05:28:21;;;;;;;30.93;13.93;;;;;;;19.83;56.50;101937.47;5081534;28;20029;-55
2022/05/05 05:30:47;;;;;;;22.40;12.43;;;;;;;20.00;56.07;101943.09;5085856;28;20047;-52
2022/05/05 05:33:13;;;;;;;29.40;13.07;;;;;;;19.96;56.19;101941.91;5088169;28;20044;-55
2022/05/05 05:35:39;;;;;;;27.17;12.98;;;;;;;20.10;55.47;101948.81;5078686;28;20304;-52
2022/05/05 05:38:04;;;;;;;22.40;12.13;;;;;;;20.18;55.48;101951.19;5091920;28;20028;-52
2022/05/05 05:40:31;;;;;;;29.85;12.48;;;;;;;20.46;55.22;101957.81;5082279;28;20269;-52
2022/05/05 05:42:57;;;;;;;24.70;12.23;;;;;;;20.63;54.89;101959.84;5084432;28;20044;-52
2022/05/05 05:45:24;;;;;;;24.15;12.38;;;;;;;20.61;54.94;101962.78;5083987;28;20277;-53
2022/05/05 05:47:50;;;;;;;22.30;11.80;;;;;;;20.69;54.37;101963.53;5064932;28;20033;-52
2022/05/05 05:50:16;;;;;;;26.85;12.43;;;;;;;20.82;53.59;101970.66;5089928;28;20065;-55
2022/05/05 05:52:42;;;;;;;;;;;;;;;20.86;53.13;101971.81;5084182;28;20060;-56
2022/05/05 05:55:08;;;;;;;26.20;11.03;;;;;;;20.92;52.50;101970.84;5082907;28;19916;-55
2022/05/05 05:57:33;;;;;;;30.48;12.32;;;;;;;21.10;51.98;101969.06;5075892;28;20041;-56
2022/05/05 05:59:58;;;;;;;31.17;12.63;;;;;;;21.08;51.73;101966.56;5076161;28;20044;-54
2022/05/05 06:05:09;;;;;;;29.90;11.00;;;;;;;20.90;51.83;101971.13;5082669;28;20043;-53
2022/05/05 06:07:34;;;;;;;24.08;11.00;;;;;;;21.06;52.27;101966.00;5090753;28;20277;-54
2022/05/05 06:10:00;;;;;;;22.30;10.53;;;;;;;21.12;51.69;101975.09;5078085;28;20040;-54
2022/05/05 06:12:25;;;;;;;33.67;11.20;;;;;;;21.35;51.70;101980.50;5066204;28;20064;-53
2022/05/05 06:14:50;;;;;;;23.40;11.13;;;;;;;21.38;51.85;101978.34;5071128;28;20280;-53
2022/05/05 06:17:17;;;;;;;26.45;11.38;;;;;;;21.57;51.30;101987.19;5073836;28;20503;-56
2022/05/05 06:19:43;;;;;;;24.23;10.35;;;;;;;21.76;49.83;101985.13;5073031;28;20045;-55
2022/05/05 06:22:09;;;;;;;30.08;10.30;;;;;;;21.37;50.30;101993.03;5075746;28;20028;-55
2022/05/05 06:24:35;;;;;;;24.30;10.80;;;;;;;22.07;48.57;101993.84;5086837;28;20076;-53
2022/05/05 06:27:01;;;;;;;28.27;11.57;;;;;;;22.23;48.94;101994.13;5074753;28;20066;-51
2022/05/05 06:29:27;;;;;;;21.05;10.85;;;;;;;21.77;49.50;102003.91;5089209;28;20043;-55
2022/05/05 06:31:52;;;;;;;22.90;10.60;;;;;;;22.03;49.15;101998.97;5077491;28;20029;-55
2022/05/05 06:34:18;;;;;;;22.70;10.57;;;;;;;22.32;48.50;101992.63;5089331;28;20104;-55
2022/05/05 06:36:43;;;;;;;28.67;11.53;;;;;;;22.85;46.84;102000.59;5083232;28;20063;-52
2022/05/05 06:39:08;;;;;;;23.87;10.07;;;;;;;23.02;45.65;102004.09;5082310;28;20044;-54
2022/05/05 06:41:35;;;;;;;21.57;11.27;;;;;;;23.24;45.21;102002.47;5064932;28;20052;-56
2022/05/05 06:44:00;;;;;;;26.17;11.48;;;;;;;23.43;44.81;102006.56;5090074;28;20067;-55
2022/05/05 06:46:27;;;;;;;21.10;9.80;;;;;;;23.66;44.32;102006.53;5068299;28;20028;-54
2022/05/05 06:48:53;;;;;;;23.23;10.50;;;;;;;23.43;44.32;102012.03;5073212;28;20048;-55
2022/05/05 06:51:19;;;;;;;18.95;10.18;;;;;;;23.63;43.89;102007.88;5062748;28;20305;-55
2022/05/05 06:53:45;;;;;;;21.33;11.00;;;;;;;23.71;43.62;102007.44;5064539;28;20037;-55
2022/05/05 06:56:10;;;;;;;22.08;10.68;;;;;;;23.61;43.50;102008.16;5061175;28;20029;-58
2022/05/05 06:58:35;;;;;;;22.95;11.40;;;;;;;23.61;42.91;102010.88;5062039;28;20064;-55
2022/05/05 07:03:45;;;;;;;19.03;10.50;;;;;;;23.60;42.91;102013.84;5065615;28;20034;-56
2022/05/05 07:06:11;;;;;;;23.67;10.77;;;;;;;23.88;42.14;102020.19;5065779;28;20292;-56
2022/05/05 07:11:22;;;;;;;21.27;9.77;;;;;;;23.28;42.94;102023.56;5060151;28;20048;-55
2022/05/05 07:13:48;;;;;;;25.30;11.25;;;;;;;23.10;42.72;102032.03;5069251;28;20285;-56
2022/05/05 07:16:14;;;;;;;22.88;10.13;;;;;;;23.24;42.45;102024.31;5062145;28;20029;-55
2022/05/05 07:18:39;;;;;;;23.95;10.75;;;;;;;22.99;42.51;102026.41;5067029;28;20033;-54
2022/05/05 07:21:05;;;;;;;21.60;11.10;;;;;;;22.66;42.14;102033.56;5063610;28;20036;-51
2022/05/05 07:23:31;;;;;;;28.13;11.93;;;;;;;22.71;42.06;102033.66;5064812;28;20046;-54
2022/05/05 07:25:57;;;;;;;23.23;10.52;;;;;;;22.97;41.85;102041.41;5062910;28;20036;-56
2022/05/05 07:28:22;;;;;;;30.60;13.65;;;;;;;22.33;42.23;102038.72;5065624;28;20029;-53
2022/05/05 07:30:47;;;;;;;27.60;11.38;;;;;;;22.35;42.69;102043.91;5060123;28;20049;-53
2022/05/05 07:33:13;;;;;;;25.60;12.20;;;;;;;23.34;41.34;102051.75;5058975;28;20034;-55
2022/05/05 07:35:39;;;;;;;25.25;12.23;;;;;;;23.16;42.39;102047.38;5058207;28;20052;-55
2022/05/05 07:38:05;;;;;;;34.17;12.30;;;;;;;23.54;41.05;102053.94;5068332;28;20036;-55
2022/05/05 07:40:30;;;;;;;;;;;;;;;23.11;41.42;102053.59;5066447;28;20320;-52
2022/05/05 07:42:56;;;;;;;30.47;12.23;;;;;;;22.46;43.44;102051.22;5067820;28;19917;-56
2022/05/05 07:45:22;;;;;;;28.05;13.07;;;;;;;22.36;43.79;102053.75;5063662;28;20101;-56
2022/05/05 07:47:48;;;;;;;23.80;11.82;;;;;;;23.41;42.09;102057.88;5063843;28;20036;-54
2022/05/05 07:50:14;;;;;;;25.92;11.30;;;;;;;23.96;40.96;102062.59;5058746;28;20221;-55
2022/05/05 07:52:40;;;;;;;31.20;11.60;;;;;;;24.07;40.44;102056.19;5059555;28;20049;-54
2022/05/05 07:55:06;;;;;;;24.13;10.55;;;;;;;23.02;42.34;102057.84;5062259;28;20060;-55
2022/05/05 07:57:32;;;;;;;22.05;11.05;;;;;;;23.54;41.12;102064.00;5067799;28;20064;-55
2022/05/05 07:59:57;;;;;;;20.98;11.55;;;;;;;23.59;41.05;102070.38;5067003;28;20033;-53
2022/05/05 08:02:23;;;;;;;21.80;10.70;;;;;;;23.73;40.91;102065.34;5064506;28;20063;-53
2022/05/05 08:04:48;;;;;;;25.00;12.20;;;;;;;23.66;40.92;102061.16;5065649;28;20276;-54
2022/05/05 08:07:14;;;;;;;24.60;11.43;;;;;;;24.09;40.49;102070.41;5070062;28;20063;-49
2022/05/05 08:09:39;;;;;;;26.08;12.38;;;;;;;24.39;39.85;102074.53;5059620;28;20045;-55
2022/05/05 08:12:06;;;;;;;27.52;11.70;;;;;;;24.24;40.19;102077.94;5077783;28;20063;-56
2022/05/05 08:14:31;;;;;;;25.87;11.17;;;;;;;23.86;40.62;102072.31;5077018;28;20111;-56
2022/05/05 08:16:57;;;;;;;34.30;15.23;;;;;;;23.84;41.79;102079.94;5086658;28;20278;-52
2022/05/05 08:19:23;;;;;;;30.65;15.05;;;;;;;24.28;41.34;102089.19;5071948;28;20060;-52
2022/05/05 08:21:50;;;;;;;30.02;14.32;;;;;;;24.26;40.86;102083.97;5073913;28;20032;-51
2022/05/05 08:29:44;;;;;;;33.20;13.97;;;;;;;24.51;40.70;102089.94;5067353;28;20029;-58
2022/05/05 08:32:10;;;;;;;31.83;16.13;;;;;;;23.74;42.00;102094.31;5070633;28;20040;-51
2022/05/05 08:34:35;;;;;;;43.30;19.52;;;;;;;24.07;41.90;102091.72;5089459;28;20055;-51
2022/05/05 08:37:01;;;;;;;34.75;17.75;;;;;;;24.32;41.36;102093.06;5087158;28;20109;-53
2022/05/05 08:39:27;;;;;;;;;;;;;;;24.39;41.64;102093.66;5082388;28;20072;-51
2022/05/05 08:41:54;;;;;;;38.77;21.10;;;;;;;24.49;42.15;102093.78;5077472;28;19987;-54
2022/05/05 08:44:20;;;;;;;40.97;20.30;;;;;;;24.45;43.01;102103.59;5087941;28;20033;-56
2022/05/05 08:46:46;;;;;;;31.33;17.40;;;;;;;24.65;43.29;102098.53;5063693;28;20102;-51
2022/05/05 08:49:12;;;;;;;34.97;17.37;;;;;;;24.55;43.35;102102.00;5070117;28;20059;-55
2022/05/05 08:51:45;;;;;;;32.70;18.00;;;;;;;24.35;43.72;102103.47;5069051;28;20104;-57
2022/05/05 08:54:16;;;;;;;35.53;18.40;;;;;;;24.61;43.55;102101.81;5062428;28;20025;-51
2022/05/05 08:56:48;;;;;;;37.77;19.10;;;;;;;24.15;44.33;102098.63;5065143;28;20029;-54
2022/05/05 08:59:14;;;;;;;36.90;19.80;;;;;;;24.31;44.79;102099.59;5087689;28;20118;-55
2022/05/05 09:01:40;;;;;;;39.53;19.70;;;;;;;24.59;44.43;102109.44;5080164;28;20044;-55
2022/05/05 09:04:07;;;;;;;39.60;20.00;;;;;;;24.91;44.23;102099.59;5076782;28;20042;-53
2022/05/05 09:06:47;;;;;;;43.03;20.87;;;;;;;25.19;44.09;102108.56;5068479;28;20101;-52
2022/05/05 09:09:26;;;;;;;40.67;21.53;;;;;;;24.85;44.82;102111.59;5065364;28;20061;-55
2022/05/05 09:12:14;;;;;;;42.73;21.67;;;;;;;25.54;44.01;102115.34;5068207;28;20068;-55
2022/05/05 09:14:43;;;;;;;47.50;22.17;;;;;;;25.73;43.06;102114.88;5065728;28;20024;-55
2022/05/05 09:17:11;;;;;;;45.70;20.97;;;;;;;25.93;42.52;102116.84;5070631;28;20032;-55
2022/05/05 09:19:39;;;;;;;35.10;20.37;;;;;;;25.54;42.89;102115.34;5066052;28;20096;-50
2022/05/05 09:22:06;;;;;;;43.97;20.37;;;;;;;25.56;42.94;102118.63;5069511;28;20137;-54
2022/05/05 09:24:35;;;;;;;43.67;22.00;;;;;;;25.82;42.47;102118.72;5058560;28;20117;-56
2022/05/05 09:27:24;;;;;;;38.10;20.30;;;;;;;25.82;42.52;102126.16;5058816;28;20075;-51
2022/05/05 09:30:12;;;;;;;44.10;22.13;;;;;;;26.17;41.93;102132.84;5064135;28;20036;-54
2022/05/05 09:32:40;;;;;;;44.50;22.47;;;;;;;26.18;41.68;102131.75;5062853;28;20037;-54
2022/05/05 09:35:19;;;;;;;39.03;20.73;;;;;;;25.01;43.60;102127.03;5063032;28;20040;-56
2022/05/05 09:37:47;;;;;;;41.57;22.30;;;;;;;25.00;43.94;102125.38;5058137;28;20069;-56
2022/05/05 09:40:18;;;;;;;42.43;21.03;;;;;;;26.22;42.91;102132.03;5062376;28;20035;-52
2022/05/05 09:42:46;;;;;;;56.57;25.23;;;;;;;26.72;41.64;102130.47;5087322;28;20230;-54
2022/05/05 09:45:16;;;;;;;44.90;23.87;;;;;;;27.28;40.64;102131.53;5086732;28;20068;-52
2022/05/05 09:47:42;;;;;;;44.13;23.23;;;;;;;26.83;40.99;102130.47;5079477;28;20041;-55
2022/05/05 09:50:08;;;;;;;41.53;23.23;;;;;;;26.83;40.76;102131.28;5091543;28;20044;-54
2022/05/05 09:58:08;;;;;;;44.40;24.23;;;;;;;26.58;41.05;102140.34;5077735;28;20058;-54
2022/05/05 10:05:51;;;;;;;48.17;26.80;;;;;;;26.38;41.91;102144.69;5090944;28;20047;-56
2022/05/05 10:08:22;;;;;;;48.57;25.63;;;;;;;26.42;42.42;102143.06;5078836;28;20039;-54
2022/05/05 10:10:49;;;;;;;46.63;25.03;;;;;;;27.05;40.69;102157.66;5085610;28;20032;-55
2022/05/05 10:13:20;;;;;;;;;;;;;;;25.90;42.42;102148.38;5087143;28;20032;-57
2022/05/05 10:15:50;;;;;;;46.30;24.73;;;;;;;25.09;44.39;102152.25;5078502;28;19924;-52
2022/05/05 10:18:16;;;;;;;43.53;23.20;;;;;;;25.72;43.08;102146.09;5062441;28;20594;-54
2022/05/05 10:20:42;;;;;;;39.70;22.30;;;;;;;25.74;43.08;102149.41;5085863;28;20057;-55
2022/05/05 10:23:24;;;;;;;41.05;23.13;;;;;;;26.04;42.60;102148.69;5084733;28;20043;-55
2022/05/05 10:25:53;;;;;;;47.20;23.00;;;;;;;26.09;42.46;102153.38;5077664;28;20096;-50
2022/05/05 10:28:36;;;;;;;43.87;23.83;;;;;;;26.31;42.08;102152.38;5089894;28;20053;-52
2022/05/05 10:31:01;;;;;;;41.30;23.17;;;;;;;26.74;41.81;102152.94;5074249;28;20041;-53
2022/05/05 10:34:00;;;;;;;50.43;24.97;;;;;;;27.33;40.43;102152.66;5088357;28;20112;-55
2022/05/05 10:36:27;;;;;;;51.17;27.20;;;;;;;27.55;40.61;102157.03;5064480;28;20024;-55
2022/05/05 10:38:54;;;;;;;41.37;24.67;;;;;;;27.86;39.60;102152.25;5084821;28;20040;-55
2022/05/05 10:41:41;;;;;;;41.63;24.20;;;;;;;27.25;40.23;102154.06;5086809;28;20046;-55
2022/05/05 10:44:23;;;;;;;47.67;25.10;;;;;;;27.25;40.17;102148.56;5077669;28;20032;-53
2022/05/05 10:46:56;;;;;;;44.63;24.27;;;;;;;27.79;39.32;102148.97;5085892;28;20036;-53
2022/05/05 10:52:10;;;;;;;42.00;24.83;;;;;;;29.23;36.93;102165.63;5077243;28;20104;-54
2022/05/05 10:54:46;;;;;;;49.53;25.73;;;;;;;28.34;37.71;102173.75;5087320;28;20196;-54
2022/05/05 10:57:26;;;;;;;46.95;28.42;;;;;;;27.22;39.21;102170.25;5085272;28;20040;-51
2022/05/05 11:00:07;;;;;;;45.93;27.20;;;;;;;27.00;40.28;102166.72;5077073;28;20112;-54
2022/05/05 11:02:32;;;;;;;46.47;26.80;;;;;;;27.73;38.93;102164.66;5087666;28;20041;-53
2022/05/05 11:05:27;;;;;;;;;;;;;;;28.75;37.33;102167.13;5083340;28;20033;-56
2022/05/05 11:08:17;;;;;;;53.03;29.40;;;;;;;29.30;36.40;102170.78;5068286;28;19912;-54
2022/05/05 11:11:40;;;;;;;36.73;22.10;;;;;;;29.91;35.12;102166.53;5086065;28;20032;-54
2022/05/05 11:13:42;;;;;;;43.63;25.03;;;;;;;30.21;34.47;102160.91;5087964;28;20036;-56
2022/05/05 11:22:06;;;;;;;42.40;25.27;;;;;;;29.93;34.32;102157.97;5089890;28;20033;-57
2022/05/05 11:24:32;;;;;;;46.05;25.92;;;;;;;30.31;33.80;102157.19;5073565;28;20061;-57
2022/05/05 11:26:57;;;;;;;41.47;24.10;;;;;;;30.69;33.36;102164.63;5073253;28;20041;-55
2022/05/05 11:29:28;;;;;;;39.47;25.37;;;;;;;31.47;32.53;102170.41;5078699;28;20060;-56
2022/05/05 11:32:02;;;;;;;42.83;25.97;;;;;;;30.57;33.41;102167.81;5056706;28;20033;-56
2022/05/05 11:34:32;;;;;;;43.37;26.07;;;;;;;30.45;33.22;102174.63;5068852;28;20101;-57
2022/05/05 11:36:59;;;;;;;45.80;28.30;;;;;;;30.99;32.55;102163.28;5077787;28;20058;-54
2022/05/05 11:39:25;;;;;;;46.30;26.83;;;;;;;31.90;31.11;102163.78;5077821;28;20028;-56
2022/05/05 11:42:07;;;;;;;48.38;27.35;;;;;;;32.41;30.68;102172.06;5074598;28;20055;-54
2022/05/05 11:44:40;;;;;;;35.65;23.08;;;;;;;32.98;29.40;102161.53;5074109;28;20044;-55
2022/05/05 11:47:18;;;;;;;41.75;26.15;;;;;;;33.71;28.64;102163.16;5067929;28;20025;-55
2022/05/05 11:49:47;;;;;;;51.55;28.80;;;;;;;32.70;29.67;102170.78;5074084;28;20096;-55
2022/05/05 11:52:20;;;;;;;43.40;26.33;;;;;;;33.29;29.01;102167.06;5074575;28;20085;-55
2022/05/05 11:54:49;;;;;;;42.35;26.77;;;;;;;33.36;28.73;102165.78;5073619;28;20116;-55
2022/05/05 11:57:34;;;;;;;46.63;29.05;;;;;;;33.67;28.16;102159.38;5068762;28;20029;-56
2022/05/05 12:02:45;;;;;;;34.70;20.42;;;;;;;33.68;27.05;102166.56;5076003;28;20032;-54